sensor_id;sensor_type;location;lat;lon;timestamp;P1;durP1;ratioP1;P2;durP2;ratioP2
76749;SDS011;66447;35.844;14.468;2023-10-31T00:13:46;26.02;;;4.63;;
76749;SDS011;66447;35.844;14.468;2023-10-31T00:28:47;28.70;;;4.70;;
76749;SDS011;66447;35.844;14.468;2023-10-31T00:43:47;29.27;;;4.88;;
76749;SDS011;66447;35.844;14.468;2023-10-31T00:58:48;32.70;;;4.22;;
76749;SDS011;66447;35.844;14.468;2023-10-31T01:13:49;25.83;;;4.28;;
76749;SDS011;66447;35.844;14.468;2023-10-31T01:28:49;31.75;;;5.13;;
76749;SDS011;66447;35.844;14.468;2023-10-31T01:43:51;27.77;;;4.00;;
76749;SDS011;66447;35.844;14.468;2023-10-31T01:58:52;26.48;;;4.43;;
76749;SDS011;66447;35.844;14.468;2023-10-31T02:13:53;26.83;;;4.30;;
76749;SDS011;66447;35.844;14.468;2023-10-31T02:28:54;34.25;;;4.35;;
76749;SDS011;66447;35.844;14.468;2023-10-31T02:43:55;30.93;;;4.33;;
76749;SDS011;66447;35.844;14.468;2023-10-31T02:58:57;31.87;;;4.77;;
76749;SDS011;66447;35.844;14.468;2023-10-31T03:13:58;34.97;;;4.90;;
76749;SDS011;66447;35.844;14.468;2023-10-31T03:28:59;29.92;;;4.70;;
76749;SDS011;66447;35.844;14.468;2023-10-31T03:44:00;21.67;;;3.80;;
76749;SDS011;66447;35.844;14.468;2023-10-31T03:59:00;27.20;;;4.20;;
76749;SDS011;66447;35.844;14.468;2023-10-31T04:14:01;31.33;;;4.35;;
76749;SDS011;66447;35.844;14.468;2023-10-31T04:29:03;28.13;;;4.40;;
76749;SDS011;66447;35.844;14.468;2023-10-31T04:44:04;29.95;;;4.45;;
76749;SDS011;66447;35.844;14.468;2023-10-31T04:59:05;33.87;;;6.67;;
76749;SDS011;66447;35.844;14.468;2023-10-31T05:14:07;29.00;;;5.30;;
76749;SDS011;66447;35.844;14.468;2023-10-31T05:29:10;36.90;;;6.00;;
76749;SDS011;66447;35.844;14.468;2023-10-31T05:44:11;30.43;;;5.73;;
76749;SDS011;66447;35.844;14.468;2023-10-31T05:59:12;32.95;;;5.40;;
76749;SDS011;66447;35.844;14.468;2023-10-31T06:14:12;38.33;;;6.78;;
76749;SDS011;66447;35.844;14.468;2023-10-31T06:29:13;43.20;;;5.75;;
76749;SDS011;66447;35.844;14.468;2023-10-31T06:44:14;47.55;;;6.47;;
76749;SDS011;66447;35.844;14.468;2023-10-31T06:59:15;42.08;;;6.28;;
76749;SDS011;66447;35.844;14.468;2023-10-31T07:14:15;42.72;;;6.10;;
76749;SDS011;66447;35.844;14.468;2023-10-31T07:29:16;48.40;;;6.82;;
76749;SDS011;66447;35.844;14.468;2023-10-31T07:44:17;38.50;;;5.55;;
76749;SDS011;66447;35.844;14.468;2023-10-31T07:59:18;50.78;;;6.75;;
76749;SDS011;66447;35.844;14.468;2023-10-31T08:14:18;38.28;;;5.50;;
76749;SDS011;66447;35.844;14.468;2023-10-31T08:29:25;31.13;;;5.27;;
76749;SDS011;66447;35.844;14.468;2023-10-31T08:44:26;34.60;;;5.22;;
76749;SDS011;66447;35.844;14.468;2023-10-31T08:59:27;41.17;;;6.63;;
76749;SDS011;66447;35.844;14.468;2023-10-31T09:14:27;33.13;;;4.45;;
76749;SDS011;66447;35.844;14.468;2023-10-31T09:29:28;26.60;;;4.03;;
76749;SDS011;66447;35.844;14.468;2023-10-31T09:44:29;28.98;;;4.60;;
76749;SDS011;66447;35.844;14.468;2023-10-31T09:59:29;35.70;;;5.28;;
76749;SDS011;66447;35.844;14.468;2023-10-31T10:14:30;38.72;;;5.20;;
76749;SDS011;66447;35.844;14.468;2023-10-31T10:29:34;43.23;;;6.07;;
76749;SDS011;66447;35.844;14.468;2023-10-31T10:44:35;35.40;;;6.27;;
76749;SDS011;66447;35.844;14.468;2023-10-31T10:59:40;40.00;;;5.17;;
76749;SDS011;66447;35.844;14.468;2023-10-31T11:14:43;32.27;;;5.40;;
76749;SDS011;66447;35.844;14.468;2023-10-31T11:29:44;34.73;;;5.00;;
76749;SDS011;66447;35.844;14.468;2023-10-31T11:44:54;32.67;;;5.40;;
76749;SDS011;66447;35.844;14.468;2023-10-31T11:59:55;40.07;;;5.33;;
76749;SDS011;66447;35.844;14.468;2023-10-31T12:15:03;39.30;;;4.80;;
76749;SDS011;66447;35.844;14.468;2023-10-31T12:30:08;34.27;;;4.80;;
76749;SDS011;66447;35.844;14.468;2023-10-31T12:45:09;35.57;;;5.73;;
76749;SDS011;66447;35.844;14.468;2023-10-31T13:00:11;33.97;;;4.87;;
76749;SDS011;66447;35.844;14.468;2023-10-31T13:15:17;28.10;;;4.40;;
76749;SDS011;66447;35.844;14.468;2023-10-31T13:30:19;36.97;;;5.63;;
76749;SDS011;66447;35.844;14.468;2023-10-31T13:45:21;30.20;;;4.63;;
76749;SDS011;66447;35.844;14.468;2023-10-31T14:00:22;23.33;;;4.55;;
76749;SDS011;66447;35.844;14.468;2023-10-31T14:15:22;25.48;;;3.97;;
76749;SDS011;66447;35.844;14.468;2023-10-31T14:30:23;24.90;;;3.57;;
76749;SDS011;66447;35.844;14.468;2023-10-31T14:45:25;17.50;;;2.90;;
76749;SDS011;66447;35.844;14.468;2023-10-31T15:00:26;11.20;;;1.93;;
76749;SDS011;66447;35.844;14.468;2023-10-31T15:15:27;11.88;;;2.25;;
76749;SDS011;66447;35.844;14.468;2023-10-31T15:30:28;18.35;;;2.35;;
76749;SDS011;66447;35.844;14.468;2023-10-31T15:45:29;8.75;;;2.08;;
76749;SDS011;66447;35.844;14.468;2023-10-31T16:00:29;13.60;;;2.50;;
76749;SDS011;66447;35.844;14.468;2023-10-31T16:15:30;13.18;;;3.22;;
76749;SDS011;66447;35.844;14.468;2023-10-31T16:30:31;15.90;;;2.70;;
76749;SDS011;66447;35.844;14.468;2023-10-31T16:45:32;11.77;;;2.60;;
76749;SDS011;66447;35.844;14.468;2023-10-31T17:00:33;10.20;;;2.33;;
76749;SDS011;66447;35.844;14.468;2023-10-31T17:15:34;12.13;;;2.90;;
76749;SDS011;66447;35.844;14.468;2023-10-31T17:30:35;15.73;;;4.22;;
76749;SDS011;66447;35.844;14.468;2023-10-31T17:45:36;17.05;;;3.60;;
76749;SDS011;66447;35.844;14.468;2023-10-31T18:00:37;15.65;;;3.67;;
76749;SDS011;66447;35.844;14.468;2023-10-31T18:15:37;15.77;;;3.72;;
76749;SDS011;66447;35.844;14.468;2023-10-31T18:30:38;17.58;;;3.50;;
76749;SDS011;66447;35.844;14.468;2023-10-31T18:45:39;20.55;;;3.65;;
76749;SDS011;66447;35.844;14.468;2023-10-31T19:00:40;15.88;;;3.33;;
76749;SDS011;66447;35.844;14.468;2023-10-31T19:15:41;16.00;;;3.35;;
76749;SDS011;66447;35.844;14.468;2023-10-31T19:30:41;21.17;;;3.97;;
76749;SDS011;66447;35.844;14.468;2023-10-31T19:45:42;20.63;;;4.75;;
76749;SDS011;66447;35.844;14.468;2023-10-31T20:00:45;24.05;;;6.10;;
76749;SDS011;66447;35.844;14.468;2023-10-31T20:15:46;28.75;;;6.40;;
76749;SDS011;66447;35.844;14.468;2023-10-31T20:30:50;25.20;;;4.85;;
76749;SDS011;66447;35.844;14.468;2023-10-31T20:45:50;10.35;;;2.90;;
76749;SDS011;66447;35.844;14.468;2023-10-31T21:00:51;17.73;;;3.53;;
76749;SDS011;66447;35.844;14.468;2023-10-31T21:15:52;15.05;;;3.05;;
76749;SDS011;66447;35.844;14.468;2023-10-31T21:30:53;11.15;;;2.40;;
76749;SDS011;66447;35.844;14.468;2023-10-31T21:45:54;12.13;;;2.40;;
76749;SDS011;66447;35.844;14.468;2023-10-31T22:00:54;17.73;;;3.35;;
76749;SDS011;66447;35.844;14.468;2023-10-31T22:15:56;13.40;;;3.17;;
76749;SDS011;66447;35.844;14.468;2023-10-31T22:30:57;16.70;;;3.10;;
76749;SDS011;66447;35.844;14.468;2023-10-31T22:45:58;16.27;;;2.97;;
76749;SDS011;66447;35.844;14.468;2023-10-31T23:00:59;17.70;;;3.40;;
76749;SDS011;66447;35.844;14.468;2023-10-31T23:16:04;15.77;;;3.15;;
76749;SDS011;66447;35.844;14.468;2023-10-31T23:31:05;13.95;;;2.90;;
76749;SDS011;66447;35.844;14.468;2023-10-31T23:46:06;17.65;;;3.03;;
